• Join FlightAware (Why Join?)
  • Login
  • US Flag 
07:26PM EDT


 

Airport Tracker/Info


-or-


 

Live Flight TrackerFlight Track Log ✈ SKW5550 ✈ 11-Oct-2013 ✈ KDEN - KSMF

Flight Track Log - Related Links

Times and Time Zones

All times are in EDT time to prevent confusion due to time zone crossing. See the SKW5550 flight status page for this flight to view local times or setup timezone preferences in your user account.

Time Position Orientation Groundspeed Altitude Reporting Facility
EDT Latitude Longitude Course Direction KTS MPH feet Rate Location/Type
05:11PM 39.8500 -104.7833 270° West 202 232 7,500  Level Denver TRACON
05:12PM 39.8833 -104.8500 303° West 264 304 8,900 1,740 Climbing Denver TRACON
05:12PM 39.9000 -104.9500 282° West 283 326 10,900 2,220 Climbing Denver TRACON
05:14PM 39.9167 -105.0500 282° West 273 314 13,400 1,680 Climbing Denver TRACON
05:15PM 39.9333 -105.1667 281° West 317 365 14,500 1,380 Climbing Denver TRACON
05:16PM 39.8624 -105.4914 270° West  Level Estimated
05:16PM 39.9333 -105.2833 270° West 333 383 16,300  Level Denver TRACON
05:17PM 39.9503 -105.4364 278° West 336 387 17,900 1,320 Climbing Denver Center
05:18PM 39.9642 -105.5594 278° West 345 397 19,300 1,440 Climbing Denver Center
05:19PM 39.9753 -105.6956 276° West 351 404 20,900 1,260 Climbing Denver Center
05:20PM 39.9747 -105.8233 270° West 348 400 22,000 960 Climbing Denver Center
05:21PM 39.9747 -105.9367 270° West 347 399 22,900 960 Climbing Denver Center
05:22PM 39.9836 -106.0967 274° West 366 421 24,100 960 Climbing Denver Center
05:23PM 39.9908 -106.2314 274° West 372 428 25,000 960 Climbing Denver Center
05:24PM 39.9983 -106.3669 274° West 376 433 26,100 840 Climbing Denver Center
05:25PM 40.0139 -106.5206 278° West 378 435 26,800 540 Climbing Denver Center
05:26PM 40.0364 -106.6583 282° West 388 447 27,300 420 Climbing Denver Center
05:27PM 40.0569 -106.7928 281° West 393 452 27,700 600 Climbing Denver Center
05:28PM 40.0800 -106.9500 281° West 396 456 28,600 900 Climbing Denver Center
05:29PM 40.0992 -107.0806 281° West 386 444 29,600 960 Climbing Denver Center
05:30PM 40.1222 -107.2286 282° West 374 430 30,700 900 Climbing Denver Center
05:31PM 40.1403 -107.3525 281° West 364 419 31,500 600 Climbing Denver Center
05:32PM 40.1608 -107.4958 281° West 360 414 32,000 240 Climbing Denver Center
05:33PM 40.1794 -107.6222 281° West 369 425 32,000  Level Denver Center
05:34PM 40.2025 -107.7731 281° West 380 437 32,000  Level Denver Center
05:35PM 40.2211 -107.9044 281° West 384 442 32,000  Level Denver Center
05:36PM 40.2442 -108.0606 281° West 391 450 32,000  Level Denver Center
05:38PM 40.2619 -108.1933 280° West 389 448 32,000  Level Denver Center
05:39PM 40.2836 -108.3481 280° West 390 449 32,000  Level Denver Center
05:39PM 40.2931 -108.4139 281° West 394 453 32,000  Level Salt Lake Center
05:40PM 40.3139 -108.5700 280° West 390 449 32,000  Level Salt Lake Center
05:41PM 40.3314 -108.7036 280° West 390 449 32,000  Level Salt Lake Center
05:42PM 40.3528 -108.8567 280° West 386 444 32,000  Level Salt Lake Center
05:43PM 40.3703 -108.9881 280° West 384 442 32,000  Level Salt Lake Center
05:44PM 40.3914 -109.1439 280° West 390 449 32,000  Level Salt Lake Center
05:45PM 40.4086 -109.2775 280° West 390 449 32,000  Level Salt Lake Center
05:46PM 40.4286 -109.4356 279° West 394 453 32,000  Level Salt Lake Center
05:47PM 40.4467 -109.5706 280° West 394 453 32,000  Level Salt Lake Center
05:48PM 40.4628 -109.7081 279° West 399 459 32,000  Level Salt Lake Center
05:49PM 40.4836 -109.8661 280° West 397 457 32,000  Level Salt Lake Center
05:50PM 40.5006 -110.0042 279° West 398 458 32,000  Level Salt Lake Center
05:52PM 40.5164 -110.1650 277° West 400 460 32,000  Level Salt Lake Center
05:53PM 40.5300 -110.3019 277° West 396 456 32,000  Level Salt Lake Center
05:54PM 40.5447 -110.4619 277° West 395 455 32,000  Level Salt Lake Center
05:55PM 40.5572 -110.5969 277° West 397 457 32,000  Level Salt Lake Center
05:56PM 40.5708 -110.7406 277° West 397 457 32,000  Level Salt Lake Center
05:57PM 40.5839 -110.8839 277° West 396 456 32,000  Level Salt Lake Center
05:58PM 40.5994 -111.0567 277° West 395 455 32,000  Level Salt Lake Center
05:59PM 40.6117 -111.1989 277° West 393 452 32,000  Level Salt Lake Center
06:00PM 40.6242 -111.3411 277° West 392 451 32,000  Level Salt Lake Center
06:01PM 40.6364 -111.4828 277° West 390 449 32,000  Level Salt Lake Center
06:02PM 40.6483 -111.6247 276° West 389 448 32,000  Level Salt Lake Center
06:03PM 40.6600 -111.7661 276° West 388 447 32,000  Level Salt Lake Center
06:04PM 40.6714 -111.9075 276° West 386 444 32,000  Level Salt Lake Center
06:05PM 40.6819 -112.0494 276° West 386 444 32,000  Level Salt Lake Center
06:06PM 40.6961 -112.2192 276° West 389 448 32,000  Level Salt Lake Center
06:07PM 40.7078 -112.3603 276° West 387 445 32,000  Level Salt Lake Center
06:08PM 40.7189 -112.5022 276° West 388 447 32,000  Level Salt Lake Center
06:09PM 40.7222 -112.6467 272° West 396 456 32,000  Level Salt Lake Center
06:10PM 40.7236 -112.7897 271° West 391 450 32,000  Level Salt Lake Center
06:11PM 40.7244 -112.9364 270° West 399 459 32,000  Level Salt Lake Center
06:12PM 40.7250 -113.0817 270° West 396 456 32,000  Level Salt Lake Center
06:13PM 40.7261 -113.2583 271° West 401 461 32,000  Level Salt Lake Center
06:14PM 40.7256 -113.4033 270° West 398 458 32,000  Level Salt Lake Center
06:15PM 40.7269 -113.5506 271° West 402 463 32,000  Level Salt Lake Center
06:16PM 40.7272 -113.6969 270° West 400 460 32,000  Level Salt Lake Center
06:17PM 40.7244 -113.8433 269° West 401 461 32,000  Level Salt Lake Center
06:18PM 40.7189 -113.9914 267° West 404 465 32,000  Level Salt Lake Center
06:19PM 40.7131 -114.1681 268° West 403 464 32,000  Level Salt Lake Center
06:20PM 40.7078 -114.3164 267° West 406 467 32,000  Level Salt Lake Center
06:21PM 40.7028 -114.4636 267° West 405 466 32,000  Level Salt Lake Center
06:22PM 40.6989 -114.6111 268° West 404 465 32,000  Level Salt Lake Center
06:24PM 40.6911 -114.7586 266° West 404 465 32,000  Level Salt Lake Center
06:25PM 40.6836 -114.9181 267° West 402 463 32,000  Level Salt Lake Center
06:26PM 40.6767 -115.0578 266° West 401 461 32,000  Level Salt Lake Center
06:27PM 40.6644 -115.2206 264° West 400 460 32,000  Level Salt Lake Center
06:28PM 40.6589 -115.3589 267° West 398 458 32,000  Level Salt Lake Center
06:29PM 40.6503 -115.5194 266° West 395 455 32,000  Level Salt Lake Center
06:30PM 40.6444 -115.6592 267° West 397 457 32,000  Level Salt Lake Center
06:31PM 40.6378 -115.7981 266° West 397 457 32,000  Level Salt Lake Center
06:32PM 40.6286 -115.9586 266° West 395 455 32,000  Level Salt Lake Center
06:33PM 40.6194 -116.1186 266° West 394 453 32,000  Level Salt Lake Center
06:34PM 40.6114 -116.2572 266° West 395 455 32,000  Level Salt Lake Center
06:35PM 40.6006 -116.4183 265° West 397 457 32,000  Level Salt Lake Center
06:36PM 40.5925 -116.5550 266° West 394 453 32,000  Level Salt Lake Center
06:37PM 40.5831 -116.7153 266° West 396 456 32,000  Level Salt Lake Center
06:38PM 40.5739 -116.8519 265° West 397 457 32,000  Level Salt Lake Center
06:39PM 40.5386 -117.0069 253° West 419 482 32,000  Level Salt Lake Center
06:40PM 40.4922 -117.1353 245° Southwest 412 474 32,000  Level Salt Lake Center
06:41PM 40.4369 -117.2847 244° Southwest 410 472 32,000  Level Salt Lake Center
06:42PM 40.3897 -117.4117 244° Southwest 408 470 32,000  Level Salt Lake Center
06:43PM 40.3350 -117.5603 244° Southwest 407 468 32,000  Level Salt Lake Center
06:44PM 40.2869 -117.6881 244° Southwest 407 468 32,000  Level Salt Lake Center
06:45PM 40.2319 -117.8369 244° Southwest 407 468 32,000  Level Salt Lake Center
06:46PM 40.1881 -117.9553 244° Southwest 408 470 32,000  Level Oakland Center
06:47PM 40.1383 -118.0872 244° Southwest 408 470 32,000  Level Oakland Center
06:48PM 40.0789 -118.2469 244° Southwest 409 471 32,000  Level Oakland Center
06:49PM 40.0286 -118.3781 243° Southwest 406 467 32,000  Level Oakland Center
06:50PM 39.9783 -118.5100 244° Southwest 410 472 32,000  Level Oakland Center
06:51PM 39.9269 -118.6422 243° Southwest 412 474 32,000  Level Oakland Center
06:52PM 39.8764 -118.7744 244° Southwest 410 472 32,000  Level Oakland Center
06:53PM 39.8253 -118.9047 243° Southwest 408 470 32,000  Level Oakland Center
06:54PM 39.7644 -119.0619 243° Southwest 410 472 32,000  Level Oakland Center
06:55PM 39.7131 -119.1936 243° Southwest 411 473 32,000  Level Oakland Center
06:56PM 39.6619 -119.3242 243° Southwest 410 472 32,000 -60 Level Oakland Center
06:57PM 39.6108 -119.4531 243° Southwest 405 466 31,900 -540 Descending Oakland Center
06:59PM 39.5600 -119.5825 243° Southwest 404 465 30,900 -1,020 Descending Oakland Center
07:00PM 39.5028 -119.7061 239° Southwest 402 463 29,800 -1,320 Descending Oakland Center
07:01PM 39.4356 -119.8253 234° Southwest 409 471 28,200 -1,680 Descending Oakland Center
07:02PM 39.3503 -119.9728 233° Southwest 426 490 26,400 -1,620 Descending Oakland Center
07:03PM 39.2783 -120.0967 233° Southwest 430 495 24,900 -1,380 Descending Oakland Center
07:04PM 39.2175 -120.2025 233° Southwest 423 487 23,600 -1,500 Descending Oakland Center
07:05PM 39.1558 -120.3597 243° Southwest 408 470 21,800 -1,800 Descending Oakland Center
07:06PM 39.1219 -120.4956 252° West 398 458 20,000 -1,860 Descending Oakland Center
07:07PM 39.0881 -120.6289 252° West 394 453 18,000 -1,920 Descending Oakland Center
07:08PM 39.0542 -120.7622 252° West 393 452 16,100 -2,580 Descending Oakland Center
07:09PM 39.0206 -120.8908 251° West 384 442 12,800 -2,580 Descending Oakland Center
07:10PM 38.9900 -121.0081 251° West 357 411 10,900 -2,040 Descending Oakland Center
07:11PM 38.9661 -121.1033 252° West 286 329 8,700 -2,280 Descending Oakland Center
07:11PM 38.9500 -121.1667 252° West 279 321 7,300 -2,100 Descending Northern Cal TRACON
07:12PM 38.9167 -121.2667 247° West 270 311 5,500 -1,200 Descending Northern Cal TRACON
07:13PM 38.9000 -121.3500 256° West 249 287 5,000 -540 Descending Northern Cal TRACON
07:14PM 38.8667 -121.4333 243° Southwest 266 306 4,500 -840 Descending Northern Cal TRACON
07:15PM 38.8333 -121.5167 243° Southwest 239 275 3,400 -1,140 Descending Northern Cal TRACON
07:16PM 38.8000 -121.5667 229° Southwest 205 236 2,300 -1,200 Descending Northern Cal TRACON
07:17PM 38.7500 -121.5833 195° South 162 186 1,000 -1,080 Descending Northern Cal TRACON
07:18PM 38.7167 -121.5833 180° South 136 157 200 -840 Descending Northern Cal TRACON
07:21PM 38.6954 -121.5908 218° Southwest  Level Estimated